createdAt,value
2019-01-29T00:00:14.711Z,99562.66
2019-01-29T00:02:44.136Z,99565.13
2019-01-29T00:05:12.646Z,99566.39
2019-01-29T00:07:41.283Z,99565.71
2019-01-29T00:10:09.647Z,99568.19
2019-01-29T00:12:38.005Z,99567.31
2019-01-29T00:15:09.733Z,99571.22
2019-01-29T00:17:38.067Z,99574.39
2019-01-29T00:20:08.995Z,99582.37
2019-01-29T00:22:37.545Z,99587.68
2019-01-29T00:25:07.582Z,99578.64
2019-01-29T00:27:35.979Z,99581.13
2019-01-29T00:30:07.569Z,99587.16
2019-01-29T00:32:36.331Z,99591.58
2019-01-29T00:35:06.237Z,99597.05
2019-01-29T00:37:34.602Z,99597.05
2019-01-29T00:40:03.122Z,99598.66
2019-01-29T00:42:31.475Z,99603.42
2019-01-29T00:44:59.843Z,99606.44
2019-01-29T00:47:28.202Z,99611.22
2019-01-29T00:49:56.562Z,99611.91
2019-01-29T00:52:24.901Z,99613.50
2019-01-29T00:54:53.262Z,99619.34
2019-01-29T00:57:21.640Z,99624.82
2019-01-29T00:59:49.986Z,99627.10
2019-01-29T01:02:18.347Z,99624.25
2019-01-29T01:04:46.745Z,99618.91
2019-01-29T01:07:15.109Z,99629.17
2019-01-29T01:09:43.760Z,99639.09
2019-01-29T01:12:12.158Z,99638.70
2019-01-29T01:14:40.591Z,99636.00
2019-01-29T01:17:08.971Z,99640.41
2019-01-29T01:19:37.989Z,99639.49
2019-01-29T01:22:06.328Z,99643.19
2019-01-29T01:24:34.714Z,99649.22
2019-01-29T01:27:03.061Z,99646.40
2019-01-29T01:29:31.486Z,99648.69
2019-01-29T01:31:59.905Z,99652.73
2019-01-29T01:34:28.223Z,99660.36
2019-01-29T01:36:56.584Z,99661.77
2019-01-29T01:39:24.960Z,99662.64
2019-01-29T01:41:53.332Z,99667.41
2019-01-29T01:44:21.687Z,99664.08
2019-01-29T01:46:50.038Z,99667.95
2019-01-29T01:49:18.470Z,99668.66
2019-01-29T01:51:46.922Z,99664.05
2019-01-29T01:54:15.306Z,99673.06
2019-01-29T01:56:43.766Z,99669.50
2019-01-29T01:59:12.140Z,99670.19
2019-01-29T02:01:40.475Z,99671.95
2019-01-29T02:04:08.832Z,99679.23
2019-01-29T02:06:37.523Z,99679.92
2019-01-29T02:09:07.328Z,99686.10
2019-01-29T02:11:35.684Z,99687.16
2019-01-29T02:14:04.053Z,99689.45
2019-01-29T02:16:32.441Z,99679.53
2019-01-29T02:19:00.788Z,99699.14
2019-01-29T02:21:29.251Z,99695.59
2019-01-29T02:23:57.665Z,99702.85
2019-01-29T02:26:26.045Z,99701.25
2019-01-29T02:28:54.395Z,99705.68
2019-01-29T02:31:22.738Z,99707.84
2019-01-29T02:33:51.115Z,99712.60
2019-01-29T02:36:19.488Z,99718.27
2019-01-29T02:38:48.053Z,99720.89
2019-01-29T02:41:16.789Z,99714.50
2019-01-29T02:43:45.171Z,99717.69
2019-01-29T02:46:13.515Z,99722.66
2019-01-29T02:48:41.920Z,99722.11
2019-01-29T02:51:10.308Z,99717.53
2019-01-29T02:53:38.686Z,99723.35
2019-01-29T02:56:07.056Z,99726.89
2019-01-29T02:58:35.430Z,99724.58
2019-01-29T03:01:03.781Z,99726.52
2019-01-29T03:03:32.161Z,99716.45
2019-01-29T03:06:00.581Z,99715.53
2019-01-29T03:08:28.939Z,99731.48
2019-01-29T03:10:57.300Z,99732.37
2019-01-29T03:13:25.774Z,99727.08
2019-01-29T03:15:54.202Z,99736.86
2019-01-29T03:18:22.557Z,99737.78
2019-01-29T03:20:51.016Z,99737.39
2019-01-29T03:23:27.284Z,99743.96
2019-01-29T03:25:49.467Z,99751.56
2019-01-29T03:28:17.911Z,99747.70
2019-01-29T03:30:46.317Z,99754.28
2019-01-29T03:33:14.635Z,99762.25
2019-01-29T03:35:43.009Z,99756.25
2019-01-29T03:38:11.335Z,99763.17
2019-01-29T03:40:39.695Z,99758.43
2019-01-29T03:43:08.100Z,99763.55
2019-01-29T03:45:36.448Z,99769.76
2019-01-29T03:48:04.807Z,99763.17
2019-01-29T03:50:33.161Z,99766.23
2019-01-29T03:53:01.517Z,99769.76
2019-01-29T03:55:29.863Z,99769.95
2019-01-29T03:57:58.250Z,99767.30
2019-01-29T04:00:27.667Z,99767.97
2019-01-29T04:02:56.011Z,99775.59
2019-01-29T04:05:24.673Z,99776.66
2019-01-29T04:07:53.153Z,99778.59
2019-01-29T04:10:21.518Z,99778.56
2019-01-29T04:12:49.898Z,99781.21
2019-01-29T04:15:20.177Z,99783.53
2019-01-29T04:17:48.515Z,99779.64
2019-01-29T04:20:18.624Z,99786.76
2019-01-29T04:22:47.032Z,99792.59
2019-01-29T04:25:15.386Z,99790.12
2019-01-29T04:27:43.712Z,99792.95
2019-01-29T04:30:17.225Z,99794.20
2019-01-29T04:32:45.573Z,99794.38
2019-01-29T04:35:13.921Z,99796.68
2019-01-29T04:37:42.271Z,99800.91
2019-01-29T04:40:13.316Z,99802.32
2019-01-29T04:42:41.710Z,99797.91
2019-01-29T04:45:12.293Z,99807.45
2019-01-29T04:47:40.637Z,99803.87
2019-01-29T04:50:11.790Z,99797.66
2019-01-29T04:52:40.574Z,99797.87
2019-01-29T04:55:11.509Z,99804.78
2019-01-29T04:57:39.862Z,99811.56
2019-01-29T05:00:16.712Z,99808.20
2019-01-29T05:02:45.066Z,99814.94
2019-01-29T05:05:13.575Z,99812.45
2019-01-29T05:07:41.929Z,99816.70
2019-01-29T05:10:15.624Z,99804.14
2019-01-29T05:12:43.970Z,99812.31
2019-01-29T05:15:14.504Z,99814.59
2019-01-29T05:17:42.860Z,99814.77
2019-01-29T05:20:13.555Z,99813.55
2019-01-29T05:22:41.936Z,99812.98
2019-01-29T05:25:11.074Z,99817.09
2019-01-29T05:27:39.444Z,99809.28
2019-01-29T05:30:11.105Z,99810.89
2019-01-29T05:32:39.503Z,99809.08
2019-01-29T05:35:08.621Z,99808.91
2019-01-29T05:37:36.985Z,99812.63
2019-01-29T05:40:14.034Z,99815.29
2019-01-29T05:42:42.390Z,99820.63
2019-01-29T05:45:13.173Z,99824.14
2019-01-29T05:47:41.543Z,99822.34
2019-01-29T05:50:12.441Z,99830.30
2019-01-29T05:52:40.872Z,99828.88
2019-01-29T05:55:10.589Z,99833.67
2019-01-29T05:57:39.245Z,99834.91
2019-01-29T06:00:10.927Z,99830.84
2019-01-29T06:02:39.279Z,99833.86
2019-01-29T06:05:09.869Z,99830.14
2019-01-29T06:07:38.231Z,99837.59
2019-01-29T06:10:12.607Z,99834.21
2019-01-29T06:12:41.347Z,99834.56
2019-01-29T06:15:13.091Z,99832.08
2019-01-29T06:17:41.481Z,99833.32
2019-01-29T06:20:13.298Z,99836.89
2019-01-29T06:22:41.651Z,99840.09
2019-01-29T06:25:10.004Z,99842.44
2019-01-29T06:27:38.358Z,99843.70
2019-01-29T06:30:12.641Z,99846.34
2019-01-29T06:32:41.283Z,99848.14
2019-01-29T06:35:14.372Z,99850.43
2019-01-29T06:37:42.729Z,99852.73
2019-01-29T06:40:17.060Z,99854.14
2019-01-29T06:42:45.700Z,99859.11
2019-01-29T06:45:16.216Z,99860.36
2019-01-29T06:47:44.859Z,99858.95
2019-01-29T06:50:15.452Z,99860.88
2019-01-29T06:52:43.890Z,99868.88
2019-01-29T06:55:14.911Z,99871.34
2019-01-29T06:57:43.232Z,99868.70
2019-01-29T07:00:14.679Z,99873.83
2019-01-29T07:02:43.396Z,99866.92
2019-01-29T07:05:11.744Z,99876.47
2019-01-29T07:07:40.126Z,99884.08
2019-01-29T07:10:14.556Z,99879.47
2019-01-29T07:12:43.199Z,99885.84
2019-01-29T07:15:22.147Z,99885.15
2019-01-29T07:17:50.504Z,99886.39
2019-01-29T07:20:18.886Z,99886.05
2019-01-29T07:22:47.276Z,99883.36
2019-01-29T07:25:15.693Z,99885.50
2019-01-29T07:27:43.990Z,99883.57
2019-01-29T07:30:14.494Z,99889.03
2019-01-29T07:32:42.860Z,99889.20
2019-01-29T07:35:11.350Z,99889.03
2019-01-29T07:37:39.707Z,99895.95
2019-01-29T07:40:09.943Z,99894.71
2019-01-29T07:42:38.684Z,99898.77
2019-01-29T07:45:10.445Z,99901.45
2019-01-29T07:47:38.796Z,99897.56
2019-01-29T07:50:09.609Z,99901.45
2019-01-29T07:52:38.472Z,99908.01
2019-01-29T07:55:08.879Z,99905.16
2019-01-29T07:57:37.306Z,99904.62
2019-01-29T08:00:08.931Z,99899.28
2019-01-29T08:02:37.303Z,99897.48
2019-01-29T08:05:08.804Z,99894.61
2019-01-29T08:07:37.580Z,99894.55
2019-01-29T08:10:09.311Z,99900.55
2019-01-29T08:12:37.678Z,99903.52
2019-01-29T08:15:12.150Z,99902.09
2019-01-29T08:17:40.844Z,99904.58
2019-01-29T08:20:11.795Z,99912.77
2019-01-29T08:22:40.168Z,99902.97
2019-01-29T08:25:10.052Z,99908.98
2019-01-29T08:27:38.414Z,99914.98
2019-01-29T08:30:10.204Z,99920.47
2019-01-29T08:32:38.559Z,99919.21
2019-01-29T08:35:09.985Z,99898.86
2019-01-29T08:37:38.323Z,99915.14
2019-01-29T08:40:09.609Z,99915.84
2019-01-29T08:42:38.008Z,99925.03
2019-01-29T08:45:09.583Z,99923.37
2019-01-29T08:47:37.975Z,99927.61
2019-01-29T08:50:12.090Z,99926.19
2019-01-29T08:52:40.750Z,99928.80
2019-01-29T08:55:10.856Z,99933.03
2019-01-29T08:57:39.449Z,99930.86
2019-01-29T09:00:11.133Z,99931.56
2019-01-29T09:02:39.521Z,99931.92
2019-01-29T09:05:09.425Z,99937.28
2019-01-29T09:07:37.806Z,99935.65
2019-01-29T09:10:09.483Z,99938.13
2019-01-29T09:12:37.872Z,99938.89
2019-01-29T09:15:09.484Z,99937.66
2019-01-29T09:17:37.892Z,99939.76
2019-01-29T09:20:09.495Z,99938.33
2019-01-29T09:22:38.281Z,99943.59
2019-01-29T09:25:09.488Z,99937.84
2019-01-29T09:27:38.174Z,99949.16
2019-01-29T09:30:14.737Z,99952.64
2019-01-29T09:32:43.795Z,99940.17
2019-01-29T09:35:12.417Z,99938.70
2019-01-29T09:37:40.762Z,99932.25
2019-01-29T09:40:12.427Z,99942.36
2019-01-29T09:42:41.199Z,99942.75
2019-01-29T09:45:12.537Z,99936.11
2019-01-29T09:47:40.932Z,99939.45
2019-01-29T09:50:12.051Z,99936.93
2019-01-29T09:52:40.426Z,99942.26
2019-01-29T09:55:14.075Z,99938.41
2019-01-29T09:57:42.445Z,99937.52
2019-01-29T10:00:21.696Z,99940.82
2019-01-29T10:02:50.132Z,99945.02
2019-01-29T10:05:18.523Z,99943.70
2019-01-29T10:07:47.299Z,99940.67
2019-01-29T10:10:15.663Z,99938.91
2019-01-29T10:12:44.040Z,99942.81
2019-01-29T10:15:18.262Z,99940.66
2019-01-29T10:17:47.275Z,99936.55
2019-01-29T10:20:15.650Z,99932.02
2019-01-29T10:22:44.027Z,99932.98
2019-01-29T10:25:14.036Z,99930.45
2019-01-29T10:27:42.403Z,99926.17
2019-01-29T10:30:13.111Z,99930.47
2019-01-29T10:32:41.458Z,99930.47
2019-01-29T10:35:12.752Z,99924.63
2019-01-29T10:37:41.112Z,99919.81
2019-01-29T10:40:14.978Z,99915.54
2019-01-29T10:42:43.648Z,99915.54
2019-01-29T10:45:14.786Z,99912.12
2019-01-29T10:47:43.594Z,99899.36
2019-01-29T10:50:17.786Z,99908.03
2019-01-29T10:52:46.520Z,99908.03
2019-01-29T10:55:15.059Z,99908.30
2019-01-29T10:57:43.440Z,99892.89
2019-01-29T11:00:15.036Z,99892.06
2019-01-29T11:02:43.425Z,99892.06
2019-01-29T11:05:14.423Z,99890.98
2019-01-29T11:07:42.766Z,99889.47
2019-01-29T11:10:13.678Z,99889.55
2019-01-29T11:12:42.035Z,99885.51
2019-01-29T11:15:16.560Z,99878.11
2019-01-29T11:17:45.222Z,99881.17
2019-01-29T11:20:15.898Z,99878.78
2019-01-29T11:22:44.275Z,99882.53
2019-01-29T11:25:25.551Z,99882.83
2019-01-29T11:27:54.034Z,99874.05
2019-01-29T11:30:32.448Z,99889.52
2019-01-29T11:33:00.806Z,99882.62
2019-01-29T11:35:29.243Z,99882.62
2019-01-29T11:37:57.594Z,99885.26
2019-01-29T11:40:28.302Z,99881.92
2019-01-29T11:42:56.753Z,99887.11
2019-01-29T11:45:36.524Z,99887.11
2019-01-29T11:48:04.884Z,99889.60
2019-01-29T11:50:33.410Z,99895.88
2019-01-29T11:53:01.742Z,99881.56
2019-01-29T11:55:30.113Z,99881.56
2019-01-29T11:57:58.487Z,99896.66
2019-01-29T12:00:34.661Z,99896.80
2019-01-29T12:03:03.471Z,99890.12
2019-01-29T12:05:31.831Z,99895.50
2019-01-29T12:08:00.251Z,99879.80
2019-01-29T12:10:28.938Z,99895.52
2019-01-29T12:12:57.412Z,99890.26
2019-01-29T12:15:25.764Z,99884.46
2019-01-29T12:17:54.114Z,99884.46
2019-01-29T12:20:22.507Z,99884.03
2019-01-29T12:22:50.904Z,99879.23
2019-01-29T12:25:19.321Z,99879.23
2019-01-29T12:27:47.823Z,99863.70
2019-01-29T12:30:19.359Z,99863.70
2019-01-29T12:32:47.900Z,99867.59
2019-01-29T12:35:16.273Z,99868.48
2019-01-29T12:37:44.654Z,99865.59
2019-01-29T12:40:13.062Z,99861.00
2019-01-29T12:42:41.412Z,99861.11
2019-01-29T12:45:12.673Z,99863.84
2019-01-29T12:47:41.040Z,99861.00
2019-01-29T12:50:18.308Z,99861.55
2019-01-29T12:52:57.181Z,99857.25
2019-01-29T12:55:25.593Z,99857.25
2019-01-29T12:57:53.938Z,99849.48
2019-01-29T13:00:23.984Z,99846.60
2019-01-29T13:02:52.388Z,99846.30
2019-01-29T13:05:20.821Z,99843.06
2019-01-29T13:07:49.228Z,99843.06
2019-01-29T13:10:28.127Z,99848.18
2019-01-29T13:12:56.540Z,99838.23
2019-01-29T13:15:27.577Z,99838.23
2019-01-29T13:17:56.571Z,99841.47
2019-01-29T13:20:25.057Z,99830.16
2019-01-29T13:22:53.465Z,99831.02
2019-01-29T13:25:21.971Z,99836.20
2019-01-29T13:27:50.372Z,99827.27
2019-01-29T13:30:27.360Z,99827.27
2019-01-29T13:32:55.812Z,99832.39
2019-01-29T13:35:30.122Z,99826.47
2019-01-29T13:37:58.926Z,99828.45
2019-01-29T13:40:27.323Z,99825.96
2019-01-29T13:42:55.694Z,99823.92
2019-01-29T13:45:24.064Z,99830.28
2019-01-29T13:47:52.468Z,99812.55
2019-01-29T13:50:23.916Z,99817.44
2019-01-29T13:52:52.353Z,99817.44
2019-01-29T13:55:20.744Z,99817.31
2019-01-29T13:57:49.177Z,99820.57
2019-01-29T14:00:23.633Z,99819.33
2019-01-29T14:02:51.986Z,99818.88
2019-01-29T14:05:20.334Z,99819.53
2019-01-29T14:07:48.688Z,99816.34
2019-01-29T14:10:17.064Z,99817.11
2019-01-29T14:12:45.605Z,99814.41
2019-01-29T14:15:21.630Z,99818.75
2019-01-29T14:17:49.984Z,99818.75
2019-01-29T14:20:19.559Z,99814.27
2019-01-29T14:22:49.481Z,99812.26
2019-01-29T14:25:17.933Z,99808.44
2019-01-29T14:27:49.258Z,99805.00
2019-01-29T14:30:23.422Z,99799.94
2019-01-29T14:32:52.099Z,99799.92
2019-01-29T14:35:22.124Z,99807.14
2019-01-29T14:38:11.960Z,99807.14
2019-01-29T14:40:40.401Z,99802.47
2019-01-29T14:43:11.455Z,99798.55
2019-01-29T14:45:40.051Z,99797.81
2019-01-29T14:48:08.427Z,99799.95
2019-01-29T14:50:37.227Z,99800.84
2019-01-29T14:53:05.595Z,99794.69
2019-01-29T14:55:33.954Z,99793.04
2019-01-29T14:58:02.663Z,99793.90
2019-01-29T15:00:37.497Z,99788.33
2019-01-29T15:03:05.255Z,99787.08
2019-01-29T15:05:33.666Z,99784.39
2019-01-29T15:08:02.212Z,99784.23
2019-01-29T15:10:32.597Z,99781.29
2019-01-29T15:13:00.984Z,99783.88
2019-01-29T15:15:34.528Z,99780.83
2019-01-29T15:18:14.064Z,99775.95
2019-01-29T15:20:42.444Z,99773.64
2019-01-29T15:23:10.825Z,99773.98
2019-01-29T15:25:39.192Z,99775.88
2019-01-29T15:28:07.579Z,99769.06
2019-01-29T15:30:35.924Z,99764.58
2019-01-29T15:33:04.302Z,99759.25
2019-01-29T15:35:32.729Z,99759.25
2019-01-29T15:38:01.103Z,99761.38
2019-01-29T15:40:29.455Z,99756.14
2019-01-29T15:42:57.891Z,99753.75
2019-01-29T15:45:27.591Z,99753.75
2019-01-29T15:47:55.986Z,99750.80
2019-01-29T15:50:30.925Z,99752.23
2019-01-29T15:52:59.139Z,99752.62
2019-01-29T15:55:27.495Z,99749.33
2019-01-29T15:57:56.014Z,99752.82
2019-01-29T16:00:36.593Z,99754.25
2019-01-29T16:03:04.992Z,99753.94
2019-01-29T16:05:35.082Z,99748.34
2019-01-29T16:08:04.091Z,99754.23
2019-01-29T16:10:39.839Z,99747.52
2019-01-29T16:13:05.694Z,99752.05
2019-01-29T16:15:34.096Z,99749.94
2019-01-29T16:18:02.417Z,99748.89
2019-01-29T16:20:30.870Z,99737.74
2019-01-29T16:22:59.302Z,99740.45
2019-01-29T16:25:29.525Z,99737.42
2019-01-29T16:27:57.903Z,99729.27
2019-01-29T16:30:30.453Z,99734.78
2019-01-29T16:32:58.820Z,99721.50
2019-01-29T16:35:32.158Z,99719.33
2019-01-29T16:38:00.616Z,99714.20
2019-01-29T16:40:31.430Z,99716.53
2019-01-29T16:42:59.916Z,99715.64
2019-01-29T16:45:32.914Z,99718.83
2019-01-29T16:48:02.241Z,99714.88
2019-01-29T16:50:30.597Z,99716.98
2019-01-29T16:52:59.406Z,99715.73
2019-01-29T16:55:27.819Z,99707.94
2019-01-29T16:57:56.214Z,99709.20
2019-01-29T17:00:30.004Z,99708.34
2019-01-29T17:02:58.352Z,99708.41
2019-01-29T17:05:27.768Z,99706.88
2019-01-29T17:07:56.110Z,99698.56
2019-01-29T17:10:27.205Z,99700.70
2019-01-29T17:12:55.555Z,99696.81
2019-01-29T17:15:35.196Z,99695.25
2019-01-29T17:18:03.555Z,99697.95
2019-01-29T17:20:34.781Z,99705.77
2019-01-29T17:23:03.241Z,99703.66
2019-01-29T17:25:31.591Z,99698.19
2019-01-29T17:28:00.586Z,99698.56
2019-01-29T17:30:37.259Z,99698.56
2019-01-29T17:33:06.624Z,99698.75
2019-01-29T17:35:38.344Z,99700.34
2019-01-29T17:38:06.726Z,99699.45
2019-01-29T17:40:35.563Z,99696.45
2019-01-29T17:43:03.915Z,99695.59
2019-01-29T17:45:47.476Z,99683.75
2019-01-29T17:48:15.846Z,99690.14
2019-01-29T17:50:45.386Z,99688.76
2019-01-29T17:53:13.765Z,99685.91
2019-01-29T17:55:43.368Z,99679.73
2019-01-29T17:58:12.809Z,99685.05
2019-01-29T18:00:49.115Z,99674.07
2019-01-29T18:03:17.611Z,99671.27
2019-01-29T18:05:46.012Z,99669.67
2019-01-29T18:08:14.401Z,99669.11
2019-01-29T18:10:42.763Z,99671.78
2019-01-29T18:13:11.146Z,99671.08
2019-01-29T18:15:39.546Z,99673.74
2019-01-29T18:18:07.900Z,99671.09
2019-01-29T18:20:38.895Z,99669.34
2019-01-29T18:23:07.301Z,99662.62
2019-01-29T18:25:35.681Z,99660.33
2019-01-29T18:28:04.406Z,99656.61
2019-01-29T18:30:34.768Z,99660.84
2019-01-29T18:33:03.173Z,99621.27
2019-01-29T18:35:31.592Z,99658.02
2019-01-29T18:37:59.928Z,99657.13
2019-01-29T18:40:31.436Z,99657.69
2019-01-29T18:42:59.792Z,99655.21
2019-01-29T18:45:28.282Z,99651.48
2019-01-29T18:47:56.617Z,99650.59
2019-01-29T18:50:25.041Z,99646.53
2019-01-29T18:52:53.477Z,99644.40
2019-01-29T18:55:21.862Z,99651.30
2019-01-29T18:57:50.288Z,99644.58
2019-01-29T19:00:24.856Z,99646.88
2019-01-29T19:02:53.251Z,99645.48
2019-01-29T19:05:23.571Z,99645.48
2019-01-29T19:07:51.980Z,99642.64
2019-01-29T19:10:21.618Z,99638.75
2019-01-29T19:12:50.137Z,99634.16
2019-01-29T19:15:23.470Z,99637.91
2019-01-29T19:17:51.910Z,99632.97
2019-01-29T19:20:22.543Z,99630.33
2019-01-29T19:22:51.355Z,99629.39
2019-01-29T19:25:19.730Z,99627.12
2019-01-29T19:27:48.168Z,99620.21
2019-01-29T19:30:28.469Z,99617.73
2019-01-29T19:33:00.112Z,99619.70
2019-01-29T19:35:28.678Z,99620.94
2019-01-29T19:37:57.087Z,99618.64
2019-01-29T19:40:25.442Z,99622.71
2019-01-29T19:42:53.771Z,99627.16
2019-01-29T19:45:31.387Z,99624.52
2019-01-29T19:48:00.561Z,99619.55
2019-01-29T19:50:31.088Z,99621.84
2019-01-29T19:52:59.467Z,99619.20
2019-01-29T19:55:28.008Z,99623.27
2019-01-29T19:57:56.389Z,99621.52
2019-01-29T20:00:33.437Z,99619.03
2019-01-29T20:03:01.804Z,99617.09
2019-01-29T20:05:30.225Z,99622.05
2019-01-29T20:07:58.807Z,99617.81
2019-01-29T20:10:27.241Z,99613.73
2019-01-29T20:12:55.676Z,99621.92
2019-01-29T20:15:25.533Z,99615.38
2019-01-29T20:17:55.966Z,99621.08
2019-01-29T20:20:27.430Z,99620.73
2019-01-29T20:22:55.831Z,99612.25
2019-01-29T20:25:24.230Z,99609.97
2019-01-29T20:27:53.229Z,99612.09
2019-01-29T20:30:24.205Z,99604.33
2019-01-29T20:32:53.675Z,99600.45
2019-01-29T20:35:22.188Z,99600.64
2019-01-29T20:37:50.543Z,99600.27
2019-01-29T20:40:21.655Z,99604.89
2019-01-29T20:42:50.006Z,99602.41
2019-01-29T20:45:18.572Z,99597.30
2019-01-29T20:47:47.071Z,99600.12
2019-01-29T20:50:27.621Z,99589.50
2019-01-29T20:52:55.980Z,99591.81
2019-01-29T20:55:24.347Z,99585.11
2019-01-29T20:57:52.763Z,99586.34
2019-01-29T21:00:29.119Z,99590.05
2019-01-29T21:02:57.491Z,99585.42
2019-01-29T21:05:25.886Z,99583.66
2019-01-29T21:07:54.336Z,99585.08
2019-01-29T21:10:24.012Z,99584.36
2019-01-29T21:12:52.393Z,99585.27
2019-01-29T21:15:22.930Z,99581.73
2019-01-29T21:17:51.311Z,99578.17
2019-01-29T21:20:21.923Z,99577.50
2019-01-29T21:22:50.263Z,99570.59
2019-01-29T21:25:19.080Z,99569.70
2019-01-29T21:27:47.437Z,99570.25
2019-01-29T21:30:19.314Z,99560.88
2019-01-29T21:32:47.702Z,99559.98
2019-01-29T21:35:16.057Z,99557.35
2019-01-29T21:37:44.426Z,99558.77
2019-01-29T21:40:14.658Z,99558.95
2019-01-29T21:42:43.018Z,99557.38
2019-01-29T21:45:14.302Z,99554.70
2019-01-29T21:47:42.682Z,99557.17
2019-01-29T21:50:14.387Z,99551.55
2019-01-29T21:52:42.796Z,99554.55
2019-01-29T21:55:13.017Z,99553.32
2019-01-29T21:57:41.424Z,99545.55
2019-01-29T22:00:15.684Z,99552.08
2019-01-29T22:02:44.320Z,99542.70
2019-01-29T22:05:13.625Z,99542.70
2019-01-29T22:07:41.985Z,99543.25
2019-01-29T22:10:12.583Z,99542.19
2019-01-29T22:12:41.065Z,99536.16
2019-01-29T22:15:12.545Z,99542.19
2019-01-29T22:17:40.895Z,99534.94
2019-01-29T22:20:12.585Z,99531.41
2019-01-29T22:22:40.942Z,99526.45
2019-01-29T22:25:12.899Z,99522.59
2019-01-29T22:27:41.276Z,99523.27
2019-01-29T22:30:15.591Z,99523.09
2019-01-29T22:32:44.758Z,99524.33
2019-01-29T22:35:13.139Z,99482.50
2019-01-29T22:37:41.534Z,99512.13
2019-01-29T22:40:18.228Z,99510.37
2019-01-29T22:42:46.954Z,99511.61
2019-01-29T22:45:19.181Z,99512.30
2019-01-29T22:47:47.549Z,99514.77
2019-01-29T22:50:18.317Z,99508.23
2019-01-29T22:52:46.689Z,99508.06
2019-01-29T22:55:15.110Z,99511.61
2019-01-29T22:57:43.463Z,99507.55
2019-01-29T23:00:28.368Z,99503.29
2019-01-29T23:02:56.745Z,99497.83
2019-01-29T23:05:25.198Z,99500.48
2019-01-29T23:07:53.556Z,99497.28
2019-01-29T23:10:22.437Z,99490.75
2019-01-29T23:12:50.793Z,99487.55
2019-01-29T23:15:19.626Z,99481.58
2019-01-29T23:17:47.981Z,99482.09
2019-01-29T23:20:17.190Z,99482.98
2019-01-29T23:22:45.589Z,99480.85
2019-01-29T23:25:13.966Z,99476.97
2019-01-29T23:27:42.323Z,99473.27
2019-01-29T23:30:14.334Z,99472.02
2019-01-29T23:32:42.702Z,99470.95
2019-01-29T23:35:11.087Z,99465.82
2019-01-29T23:37:39.484Z,99467.57
2019-01-29T23:40:14.092Z,99463.17
2019-01-29T23:42:42.444Z,99455.74
2019-01-29T23:45:13.015Z,99453.96
2019-01-29T23:47:41.395Z,99451.66
2019-01-29T23:50:14.614Z,99444.79
2019-01-29T23:52:42.999Z,99446.19
2019-01-29T23:55:11.890Z,99439.49
2019-01-29T23:57:40.234Z,99438.60
